createdAt,value
2018-09-20T00:02:02.900Z,20.72
2018-09-20T00:04:30.465Z,20.75
2018-09-20T00:06:57.985Z,20.67
2018-09-20T00:09:25.546Z,20.47
2018-09-20T00:11:53.083Z,20.77
2018-09-20T00:14:20.618Z,20.85
2018-09-20T00:16:48.237Z,20.85
2018-09-20T00:19:15.884Z,20.81
2018-09-20T00:21:43.423Z,20.91
2018-09-20T00:24:11.004Z,20.82
2018-09-20T00:26:38.520Z,20.82
2018-09-20T00:29:06.123Z,20.78
2018-09-20T00:31:33.643Z,20.81
2018-09-20T00:34:01.185Z,20.81
2018-09-20T00:36:28.794Z,20.58
2018-09-20T00:38:56.361Z,20.72
2018-09-20T00:41:23.989Z,20.66
2018-09-20T00:43:51.522Z,20.84
2018-09-20T00:46:19.079Z,20.97
2018-09-20T00:48:46.800Z,20.80
2018-09-20T00:51:14.341Z,20.86
2018-09-20T00:53:41.847Z,20.72
2018-09-20T00:56:09.517Z,20.77
2018-09-20T00:58:37.039Z,20.80
2018-09-20T01:01:04.637Z,20.84
2018-09-20T01:03:32.193Z,20.90
2018-09-20T01:05:59.743Z,20.82
2018-09-20T01:08:27.283Z,20.80
2018-09-20T01:10:54.877Z,20.72
2018-09-20T01:13:22.433Z,20.94
2018-09-20T01:15:49.942Z,20.78
2018-09-20T01:18:17.512Z,20.60
2018-09-20T01:20:45.069Z,20.80
2018-09-20T01:23:12.781Z,20.50
2018-09-20T01:25:40.354Z,20.73
2018-09-20T01:28:07.894Z,20.61
2018-09-20T01:30:35.419Z,20.57
2018-09-20T01:33:02.978Z,20.61
2018-09-20T01:35:30.553Z,20.57
2018-09-20T01:37:58.100Z,20.65
2018-09-20T01:40:30.010Z,20.67
2018-09-20T01:42:57.585Z,20.71
2018-09-20T01:45:25.120Z,20.47
2018-09-20T01:47:56.295Z,20.35
2018-09-20T01:50:23.803Z,20.47
2018-09-20T01:52:51.344Z,20.45
2018-09-20T01:55:18.901Z,20.53
2018-09-20T01:57:46.423Z,20.41
2018-09-20T02:00:14.031Z,19.85
2018-09-20T02:02:41.601Z,20.32
2018-09-20T02:05:09.129Z,20.33
2018-09-20T02:07:36.731Z,20.35
2018-09-20T02:10:04.313Z,20.22
2018-09-20T02:12:31.876Z,20.39
2018-09-20T02:14:59.411Z,20.17
2018-09-20T02:17:27.008Z,20.35
2018-09-20T02:19:54.525Z,20.29
2018-09-20T02:22:22.252Z,20.22
2018-09-20T02:24:49.780Z,20.39
2018-09-20T02:27:17.472Z,20.50
2018-09-20T02:29:45.007Z,20.39
2018-09-20T02:32:12.547Z,20.44
2018-09-20T02:34:40.133Z,20.10
2018-09-20T02:37:07.724Z,20.08
2018-09-20T02:39:35.249Z,19.95
2018-09-20T02:42:02.834Z,19.63
2018-09-20T02:44:30.393Z,19.85
2018-09-20T02:46:57.967Z,19.71
2018-09-20T02:49:25.572Z,19.57
2018-09-20T02:51:53.102Z,19.94
2018-09-20T02:54:20.627Z,19.82
2018-09-20T02:56:48.202Z,19.94
2018-09-20T02:59:15.784Z,19.97
2018-09-20T03:01:43.295Z,20.03
2018-09-20T03:04:10.858Z,19.98
2018-09-20T03:06:38.416Z,19.88
2018-09-20T03:09:06.133Z,19.86
2018-09-20T03:11:33.647Z,19.76
2018-09-20T03:14:02.298Z,20.00
2018-09-20T03:16:29.835Z,20.05
2018-09-20T03:18:57.409Z,19.99
2018-09-20T03:21:24.962Z,19.97
2018-09-20T03:23:52.552Z,20.05
2018-09-20T03:26:20.183Z,19.96
2018-09-20T03:28:47.753Z,19.85
2018-09-20T03:31:15.321Z,19.97
2018-09-20T03:33:42.884Z,19.95
2018-09-20T03:36:10.411Z,20.05
2018-09-20T03:38:37.998Z,20.00
2018-09-20T03:41:05.581Z,19.80
2018-09-20T03:43:33.109Z,19.70
2018-09-20T03:46:00.671Z,19.65
2018-09-20T03:48:28.180Z,19.92
2018-09-20T03:50:55.748Z,19.69
2018-09-20T03:53:23.258Z,19.85
2018-09-20T03:55:50.795Z,19.93
2018-09-20T03:58:18.354Z,20.00
2018-09-20T04:00:46.112Z,20.04
2018-09-20T04:03:13.677Z,19.78
2018-09-20T04:05:41.209Z,19.57
2018-09-20T04:08:08.782Z,19.77
2018-09-20T04:10:36.696Z,19.38
2018-09-20T04:13:04.235Z,19.57
2018-09-20T04:15:31.791Z,19.56
2018-09-20T04:17:59.359Z,19.57
2018-09-20T04:20:26.924Z,19.59
2018-09-20T04:22:54.491Z,19.70
2018-09-20T04:25:22.061Z,19.82
2018-09-20T04:27:49.599Z,19.81
2018-09-20T04:30:17.223Z,19.63
2018-09-20T04:32:44.765Z,19.62
2018-09-20T04:35:12.280Z,19.54
2018-09-20T04:37:39.832Z,19.72
2018-09-20T04:40:07.356Z,19.52
2018-09-20T04:42:34.939Z,19.53
2018-09-20T04:45:02.490Z,19.55
2018-09-20T04:47:30.121Z,19.57
2018-09-20T04:49:57.816Z,19.60
2018-09-20T04:52:25.347Z,19.61
2018-09-20T04:54:53.038Z,19.65
2018-09-20T04:57:24.714Z,19.62
2018-09-20T04:59:52.348Z,19.60
2018-09-20T05:02:19.928Z,19.40
2018-09-20T05:04:47.494Z,19.36
2018-09-20T05:07:15.127Z,19.59
2018-09-20T05:09:42.695Z,19.51
2018-09-20T05:12:10.214Z,19.53
2018-09-20T05:14:37.807Z,19.60
2018-09-20T05:17:05.351Z,19.35
2018-09-20T05:19:32.953Z,19.53
2018-09-20T05:22:00.559Z,19.67
2018-09-20T05:24:28.086Z,19.63
2018-09-20T05:26:55.760Z,19.53
2018-09-20T05:29:23.304Z,19.45
2018-09-20T05:31:50.878Z,19.41
2018-09-20T05:34:22.292Z,19.61
2018-09-20T05:36:49.860Z,19.34
2018-09-20T05:39:17.442Z,19.54
2018-09-20T05:41:45.050Z,19.30
2018-09-20T05:44:12.603Z,19.36
2018-09-20T05:46:40.154Z,19.48
2018-09-20T05:49:07.890Z,19.61
2018-09-20T05:51:35.425Z,19.47
2018-09-20T05:54:02.980Z,19.66
2018-09-20T05:56:30.515Z,19.55
2018-09-20T05:58:58.081Z,19.47
2018-09-20T06:01:25.664Z,19.48
2018-09-20T06:03:53.219Z,19.36
2018-09-20T06:06:20.756Z,19.51
2018-09-20T06:08:48.333Z,19.23
2018-09-20T06:11:15.881Z,19.37
2018-09-20T06:13:43.479Z,19.20
2018-09-20T06:16:11.016Z,19.42
2018-09-20T06:18:38.536Z,19.49
2018-09-20T06:21:06.099Z,19.55
2018-09-20T06:23:33.637Z,19.72
2018-09-20T06:26:01.235Z,19.43
2018-09-20T06:28:28.822Z,19.53
2018-09-20T06:30:56.371Z,19.44
2018-09-20T06:33:23.898Z,19.54
2018-09-20T06:35:51.447Z,19.61
2018-09-20T06:38:19.240Z,19.61
2018-09-20T06:40:46.769Z,19.62
2018-09-20T06:43:14.281Z,19.63
2018-09-20T06:45:41.855Z,19.55
2018-09-20T06:48:09.373Z,19.67
2018-09-20T06:50:37.117Z,19.77
2018-09-20T06:53:04.638Z,19.85
2018-09-20T06:55:32.221Z,19.50
2018-09-20T06:57:59.727Z,19.86
2018-09-20T07:00:27.269Z,19.95
2018-09-20T07:02:54.933Z,19.95
2018-09-20T07:05:22.428Z,19.73
2018-09-20T07:07:50.012Z,19.59
2018-09-20T07:10:17.555Z,19.79
2018-09-20T07:15:18.823Z,19.96
2018-09-20T07:17:46.393Z,20.06
2018-09-20T07:20:13.968Z,20.07
2018-09-20T07:22:41.548Z,19.82
2018-09-20T07:25:09.084Z,19.89
2018-09-20T07:27:36.675Z,19.99
2018-09-20T07:30:04.198Z,20.01
2018-09-20T07:32:31.773Z,20.13
2018-09-20T07:34:59.301Z,20.09
2018-09-20T07:37:26.880Z,20.29
2018-09-20T07:39:54.411Z,20.43
2018-09-20T07:42:22.019Z,20.32
2018-09-20T07:44:49.771Z,20.48
2018-09-20T07:47:17.338Z,20.46
2018-09-20T07:49:44.860Z,20.55
2018-09-20T07:54:46.150Z,20.57
2018-09-20T07:57:13.710Z,20.63
2018-09-20T07:59:41.276Z,20.60
2018-09-20T08:02:08.863Z,20.72
2018-09-20T08:04:36.380Z,20.73
2018-09-20T08:07:03.979Z,20.71
2018-09-20T08:09:31.519Z,20.59
2018-09-20T08:11:59.089Z,20.56
2018-09-20T08:14:26.657Z,20.74
2018-09-20T08:16:54.177Z,20.90
2018-09-20T08:19:21.740Z,20.93
2018-09-20T08:21:49.304Z,21.01
2018-09-20T08:24:16.883Z,20.98
2018-09-20T08:26:44.394Z,21.13
2018-09-20T08:29:11.974Z,21.13
2018-09-20T08:31:39.540Z,21.22
2018-09-20T08:34:07.127Z,21.19
2018-09-20T08:36:35.480Z,21.45
2018-09-20T08:39:03.060Z,21.15
2018-09-20T08:41:30.644Z,21.33
2018-09-20T08:43:58.327Z,21.46
2018-09-20T08:46:25.903Z,21.36
2018-09-20T08:48:53.419Z,21.32
2018-09-20T08:51:20.990Z,21.57
2018-09-20T08:53:48.552Z,21.53
2018-09-20T08:56:16.277Z,21.63
2018-09-20T08:58:44.020Z,21.55
2018-09-20T09:01:11.570Z,21.46
2018-09-20T09:03:39.261Z,21.69
2018-09-20T09:06:06.790Z,21.84
2018-09-20T09:08:34.313Z,21.90
2018-09-20T09:11:01.908Z,21.90
2018-09-20T09:13:29.679Z,21.96
2018-09-20T09:15:57.248Z,22.06
2018-09-20T09:18:24.816Z,21.76
2018-09-20T09:20:52.356Z,22.17
2018-09-20T09:23:19.899Z,22.26
2018-09-20T09:25:47.470Z,22.26
2018-09-20T09:28:15.052Z,22.16
2018-09-20T09:30:42.636Z,22.00
2018-09-20T09:33:10.151Z,22.30
2018-09-20T09:35:37.690Z,22.33
2018-09-20T09:38:05.230Z,22.41
2018-09-20T09:40:33.676Z,22.51
2018-09-20T09:43:01.184Z,22.60
2018-09-20T09:45:28.761Z,22.64
2018-09-20T09:47:56.281Z,22.57
2018-09-20T09:50:23.817Z,22.56
2018-09-20T09:52:51.513Z,22.61
2018-09-20T09:55:19.112Z,22.74
2018-09-20T09:57:46.646Z,22.69
2018-09-20T10:00:14.199Z,22.69
2018-09-20T10:02:41.762Z,22.76
2018-09-20T10:05:09.327Z,22.69
2018-09-20T10:07:36.872Z,22.53
2018-09-20T10:10:04.638Z,22.80
2018-09-20T10:12:32.196Z,22.63
2018-09-20T10:14:59.807Z,22.72
2018-09-20T10:17:27.323Z,22.96
2018-09-20T10:19:54.904Z,22.82
2018-09-20T10:22:22.444Z,22.99
2018-09-20T10:24:50.006Z,23.15
2018-09-20T10:27:17.753Z,23.21
2018-09-20T10:29:45.303Z,22.97
2018-09-20T10:32:12.872Z,23.03
2018-09-20T10:34:40.392Z,23.07
2018-09-20T10:37:07.963Z,23.23
2018-09-20T10:39:35.489Z,22.85
2018-09-20T10:42:03.019Z,22.96
2018-09-20T10:44:30.602Z,22.96
2018-09-20T10:46:58.341Z,23.07
2018-09-20T10:49:25.927Z,23.11
2018-09-20T10:51:53.486Z,23.06
2018-09-20T10:54:21.009Z,23.16
2018-09-20T10:56:48.579Z,23.24
2018-09-20T10:59:16.156Z,23.47
2018-09-20T11:01:43.747Z,23.47
2018-09-20T11:04:11.256Z,23.60
2018-09-20T11:06:38.827Z,23.49
2018-09-20T11:09:06.381Z,23.30
2018-09-20T11:11:33.958Z,23.45
2018-09-20T11:14:01.518Z,23.44
2018-09-20T11:16:29.098Z,23.31
2018-09-20T11:18:56.617Z,23.67
2018-09-20T11:21:24.332Z,23.69
2018-09-20T11:23:51.842Z,23.63
2018-09-20T11:26:19.429Z,23.97
2018-09-20T11:28:47.015Z,24.05
2018-09-20T11:31:14.551Z,24.24
2018-09-20T11:33:42.123Z,24.10
2018-09-20T11:36:09.677Z,24.19
2018-09-20T11:38:37.230Z,24.08
2018-09-20T11:41:04.941Z,24.14
2018-09-20T11:43:32.453Z,24.07
2018-09-20T11:46:00.040Z,24.31
2018-09-20T11:48:27.579Z,24.50
2018-09-20T11:50:55.163Z,24.29
2018-09-20T11:53:22.748Z,24.42
2018-09-20T11:55:50.273Z,24.46
2018-09-20T11:58:17.845Z,24.68
2018-09-20T12:00:45.432Z,24.77
2018-09-20T12:03:13.013Z,24.52
2018-09-20T12:05:40.533Z,24.48
2018-09-20T12:08:08.175Z,24.39
2018-09-20T12:10:35.728Z,24.52
2018-09-20T12:13:03.308Z,24.45
2018-09-20T12:15:30.864Z,24.52
2018-09-20T12:17:58.463Z,24.64
2018-09-20T12:20:25.993Z,24.79
2018-09-20T12:22:53.578Z,25.04
2018-09-20T12:25:21.113Z,24.86
2018-09-20T12:27:48.799Z,25.06
2018-09-20T12:30:16.385Z,24.87
2018-09-20T12:32:44.020Z,24.99
2018-09-20T12:35:11.598Z,25.15
2018-09-20T12:37:39.168Z,24.98
2018-09-20T12:40:06.768Z,25.10
2018-09-20T12:42:34.349Z,25.10
2018-09-20T12:45:01.892Z,25.33
2018-09-20T12:47:29.453Z,25.31
2018-09-20T12:49:57.075Z,25.41
2018-09-20T12:52:24.656Z,25.26
2018-09-20T12:54:52.171Z,25.22
2018-09-20T12:57:19.701Z,25.49
2018-09-20T12:59:47.305Z,25.43
2018-09-20T13:02:14.880Z,25.60
2018-09-20T13:04:42.351Z,25.55
2018-09-20T13:07:09.995Z,25.54
2018-09-20T13:09:37.583Z,25.69
2018-09-20T13:12:05.105Z,25.80
2018-09-20T13:14:33.351Z,25.80
2018-09-20T13:17:00.909Z,25.87
2018-09-20T13:19:28.446Z,25.79
2018-09-20T13:21:56.005Z,25.71
2018-09-20T13:24:23.567Z,25.85
2018-09-20T13:26:51.134Z,25.67
2018-09-20T13:29:18.654Z,25.76
2018-09-20T13:31:46.235Z,25.82
2018-09-20T13:34:13.824Z,26.10
2018-09-20T13:36:41.360Z,26.06
2018-09-20T13:39:08.949Z,26.05
2018-09-20T13:41:36.480Z,25.93
2018-09-20T13:44:04.081Z,25.85
2018-09-20T13:46:31.815Z,26.21
2018-09-20T13:48:59.332Z,26.35
2018-09-20T13:51:26.934Z,26.37
2018-09-20T13:53:54.438Z,26.15
2018-09-20T13:56:22.013Z,26.15
2018-09-20T13:58:49.542Z,26.16
2018-09-20T14:01:17.123Z,26.13
2018-09-20T14:03:44.771Z,26.14
2018-09-20T14:06:12.363Z,26.33
2018-09-20T14:08:40.168Z,26.38
2018-09-20T14:11:07.670Z,26.41
2018-09-20T14:13:35.247Z,26.31
2018-09-20T14:16:02.772Z,26.39
2018-09-20T14:18:30.340Z,26.41
2018-09-20T14:21:01.517Z,26.41
2018-09-20T14:23:29.050Z,26.37
2018-09-20T14:25:56.685Z,26.04
2018-09-20T14:28:24.250Z,26.49
2018-09-20T14:30:51.808Z,26.37
2018-09-20T14:33:19.362Z,26.46
2018-09-20T14:35:46.904Z,26.46
2018-09-20T14:38:14.463Z,26.72
2018-09-20T14:40:41.987Z,26.65
2018-09-20T14:43:09.553Z,26.86
2018-09-20T14:45:37.267Z,26.78
2018-09-20T14:48:04.790Z,26.83
2018-09-20T14:50:33.361Z,26.74
2018-09-20T14:53:00.899Z,26.72
2018-09-20T14:55:28.455Z,26.89
2018-09-20T14:57:56.020Z,26.98
2018-09-20T15:00:23.532Z,26.86
2018-09-20T15:02:51.100Z,27.14
2018-09-20T15:05:18.741Z,27.20
2018-09-20T15:07:46.299Z,27.06
2018-09-20T15:10:13.855Z,27.31
2018-09-20T15:12:41.425Z,26.94
2018-09-20T15:15:09.020Z,27.15
2018-09-20T15:17:36.485Z,27.20
2018-09-20T15:20:04.041Z,27.32
2018-09-20T15:22:31.557Z,27.22
2018-09-20T15:24:59.121Z,27.26
2018-09-20T15:27:26.706Z,27.05
2018-09-20T15:29:54.255Z,27.06
2018-09-20T15:32:21.819Z,27.02
2018-09-20T15:34:49.492Z,27.09
2018-09-20T15:37:17.054Z,27.32
2018-09-20T15:39:44.646Z,27.49
2018-09-20T15:42:12.187Z,27.59
2018-09-20T15:44:39.743Z,27.49
2018-09-20T15:47:07.288Z,27.35
2018-09-20T15:49:34.861Z,27.32
2018-09-20T15:52:02.440Z,27.31
2018-09-20T15:54:30.022Z,27.40
2018-09-20T15:56:57.635Z,27.31
2018-09-20T15:59:25.213Z,27.47
2018-09-20T16:01:52.789Z,27.32
2018-09-20T16:04:20.375Z,27.06
2018-09-20T16:06:47.916Z,26.79
2018-09-20T16:09:15.450Z,26.80
2018-09-20T16:11:43.031Z,26.79
2018-09-20T16:14:10.793Z,26.78
2018-09-20T16:16:38.626Z,26.96
2018-09-20T16:19:06.628Z,26.90
2018-09-20T16:21:34.583Z,26.72
2018-09-20T16:24:02.227Z,26.93
2018-09-20T16:26:29.948Z,26.93
2018-09-20T16:29:01.148Z,26.53
2018-09-20T16:31:37.426Z,26.75
2018-09-20T16:34:06.802Z,26.53
2018-09-20T16:36:35.255Z,26.51
2018-09-20T16:39:03.435Z,26.50
2018-09-20T16:41:32.163Z,26.68
2018-09-20T16:44:00.279Z,26.74
2018-09-20T16:46:28.342Z,26.60
2018-09-20T16:48:56.296Z,26.48
2018-09-20T16:51:24.112Z,26.45
2018-09-20T16:53:51.972Z,26.30
2018-09-20T16:56:19.673Z,26.33
2018-09-20T16:58:48.046Z,25.98
2018-09-20T17:01:16.202Z,25.98
2018-09-20T17:03:44.089Z,25.83
2018-09-20T17:06:11.927Z,25.77
2018-09-20T17:08:41.771Z,25.92
2018-09-20T17:11:09.738Z,25.67
2018-09-20T17:13:38.046Z,25.63
2018-09-20T17:16:05.597Z,25.64
2018-09-20T17:18:33.892Z,25.61
2018-09-20T17:21:01.488Z,25.57
2018-09-20T17:23:29.213Z,25.42
2018-09-20T17:25:58.158Z,25.33
2018-09-20T17:28:26.024Z,25.39
2018-09-20T17:30:55.437Z,25.33
2018-09-20T17:33:24.772Z,25.60
2018-09-20T17:35:53.852Z,25.74
2018-09-20T17:38:22.285Z,25.76
2018-09-20T17:40:51.220Z,25.46
2018-09-20T17:43:21.270Z,25.66
2018-09-20T17:45:49.814Z,25.19
2018-09-20T17:48:31.394Z,25.18
2018-09-20T17:51:00.818Z,25.07
2018-09-20T18:15:27.239Z,24.32
2018-09-20T18:17:55.009Z,24.35
2018-09-20T18:20:22.860Z,24.27
2018-09-20T18:22:50.488Z,24.21
2018-09-20T18:25:18.067Z,24.09
2018-09-20T18:27:45.697Z,23.94
2018-09-20T18:30:13.574Z,23.87
2018-09-20T18:32:41.242Z,23.89
2018-09-20T18:35:09.073Z,23.90
2018-09-20T18:37:36.853Z,23.75
2018-09-20T18:40:05.449Z,24.02
2018-09-20T18:42:33.086Z,23.84
2018-09-20T18:45:00.582Z,23.95
2018-09-20T18:47:28.165Z,23.61
2018-09-20T18:49:55.696Z,23.30
2018-09-20T18:52:23.292Z,23.49
2018-09-20T18:54:51.004Z,23.51
2018-09-20T18:57:18.554Z,23.36
2018-09-20T18:59:46.091Z,23.50
2018-09-20T19:02:13.642Z,23.42
2018-09-20T19:04:41.215Z,23.62
2018-09-20T19:07:08.745Z,23.65
2018-09-20T19:09:36.310Z,23.88
2018-09-20T19:12:04.019Z,23.77
2018-09-20T19:14:31.590Z,23.82
2018-09-20T19:16:59.229Z,23.45
2018-09-20T19:19:27.017Z,23.78
2018-09-20T19:21:54.748Z,23.66
2018-09-20T19:24:22.616Z,23.62
2018-09-20T19:26:50.155Z,23.68
2018-09-20T19:29:17.711Z,23.82
2018-09-20T19:31:45.260Z,23.80
2018-09-20T19:34:12.853Z,23.78
2018-09-20T19:36:41.340Z,23.68
2018-09-20T19:39:08.906Z,23.58
2018-09-20T19:41:36.445Z,23.88
2018-09-20T19:44:04.008Z,23.70
2018-09-20T19:46:31.544Z,23.71
2018-09-20T19:48:59.135Z,23.84
2018-09-20T19:51:26.669Z,23.65
2018-09-20T19:53:54.222Z,23.82
2018-09-20T19:56:21.770Z,23.83
2018-09-20T19:58:49.356Z,23.79
2018-09-20T20:01:16.886Z,23.71
2018-09-20T20:03:44.478Z,23.77
2018-09-20T20:06:12.063Z,23.75
2018-09-20T20:08:39.648Z,23.56
2018-09-20T20:11:07.202Z,23.59
2018-09-20T20:13:34.764Z,23.62
2018-09-20T20:16:02.342Z,23.66
2018-09-20T20:18:29.845Z,23.62
2018-09-20T20:20:57.371Z,23.53
2018-09-20T20:23:24.970Z,23.39
2018-09-20T20:25:52.489Z,23.50
2018-09-20T20:28:20.071Z,23.21
2018-09-20T20:30:47.600Z,23.34
2018-09-20T20:33:15.138Z,23.39
2018-09-20T20:35:42.690Z,23.15
2018-09-20T20:38:10.307Z,23.23
2018-09-20T20:40:37.816Z,23.06
2018-09-20T20:43:05.382Z,23.04
2018-09-20T20:45:32.919Z,23.04
2018-09-20T20:48:00.533Z,22.99
2018-09-20T20:50:28.061Z,23.07
2018-09-20T20:52:55.678Z,23.07
2018-09-20T20:55:23.213Z,23.00
2018-09-20T20:57:50.771Z,23.00
2018-09-20T21:00:18.340Z,23.01
2018-09-20T21:02:46.072Z,22.96
2018-09-20T21:05:13.642Z,22.86
2018-09-20T21:07:41.173Z,22.87
2018-09-20T21:10:08.851Z,22.90
2018-09-20T21:12:36.362Z,23.05
2018-09-20T21:15:04.011Z,22.94
2018-09-20T21:17:31.549Z,22.67
2018-09-20T21:19:59.089Z,22.88
2018-09-20T21:22:26.656Z,22.82
2018-09-20T21:24:54.236Z,22.78
2018-09-20T21:27:21.806Z,22.72
2018-09-20T21:29:49.331Z,22.75
2018-09-20T21:32:16.920Z,22.71
2018-09-20T21:34:44.449Z,22.80
2018-09-20T21:37:12.078Z,22.66
2018-09-20T21:39:39.607Z,22.78
2018-09-20T21:42:07.122Z,22.77
2018-09-20T21:44:34.676Z,22.77
2018-09-20T21:47:02.188Z,22.68
2018-09-20T21:49:29.752Z,22.67
2018-09-20T21:51:57.405Z,22.49
2018-09-20T21:54:24.948Z,22.77
2018-09-20T21:56:52.504Z,22.79
2018-09-20T21:59:20.159Z,22.65
2018-09-20T22:01:47.673Z,22.49
2018-09-20T22:04:15.242Z,22.60
2018-09-20T22:06:42.811Z,22.81
2018-09-20T22:09:10.340Z,22.69
2018-09-20T22:11:37.884Z,22.77
2018-09-20T22:14:05.453Z,22.55
2018-09-20T22:16:33.036Z,22.63
2018-09-20T22:19:00.566Z,22.69
2018-09-20T22:21:32.787Z,22.78
2018-09-20T22:24:00.305Z,22.57
2018-09-20T22:26:27.868Z,22.63
2018-09-20T22:28:55.386Z,22.60
2018-09-20T22:31:24.088Z,22.52
2018-09-20T22:33:51.656Z,22.57
2018-09-20T22:36:19.208Z,22.45
2018-09-20T22:38:49.360Z,22.38
2018-09-20T22:41:16.942Z,22.27
2018-09-20T22:43:44.529Z,22.23
2018-09-20T22:46:12.050Z,22.33
2018-09-20T22:48:39.602Z,22.36
2018-09-20T22:51:07.169Z,22.34
2018-09-20T22:53:34.704Z,22.40
2018-09-20T22:56:02.512Z,22.34
2018-09-20T22:58:30.046Z,22.31
2018-09-20T23:00:57.653Z,22.36
2018-09-20T23:03:25.185Z,22.26
2018-09-20T23:05:52.721Z,22.23
2018-09-20T23:08:20.287Z,22.24
2018-09-20T23:10:47.810Z,22.29
2018-09-20T23:13:15.358Z,22.41
2018-09-20T23:15:42.877Z,22.22
2018-09-20T23:18:10.470Z,22.25
2018-09-20T23:20:37.983Z,22.16
2018-09-20T23:23:05.560Z,22.10
2018-09-20T23:25:33.096Z,22.23
2018-09-20T23:28:00.641Z,22.25
2018-09-20T23:30:29.334Z,22.19
2018-09-20T23:32:56.843Z,22.17
2018-09-20T23:35:24.550Z,22.25
2018-09-20T23:37:53.245Z,22.31
2018-09-20T23:40:20.830Z,22.43
2018-09-20T23:42:48.450Z,22.30
2018-09-20T23:45:16.221Z,22.20
2018-09-20T23:47:43.796Z,22.26
2018-09-20T23:50:11.443Z,22.29
2018-09-20T23:52:39.289Z,22.25
2018-09-20T23:55:09.143Z,22.38
2018-09-20T23:57:37.777Z,22.11
